ケープタウン の空港の天気 - METARとTAF

ケープタウン国際空港 ( FACT / CPT ) - 南アフリカ ケープタウン
飛行場実況気象(Metar)
観測時間05/29 01:00 SAST (05/28 23:00 UTC)
風向・風速北北西 8m/s
視程10km以上
天気現象
少しの雲 雲底高度 300m
全天の8割程度の雲 雲底高度 910m
気温14℃
湿度94%
気圧1014hPa
METARFACT 282300Z 34015KT 9999 FEW010 BKN030 14/13 Q1014 NOSIG
過去の天気等 Google飛行場航空写真 Wunderground天気予報

過去48時間のMETAR

飛行場予報(TAF)
発表時間: 5/29 00:00 SAST (5/28 22:00 UTC)
予報対象時間: 29日2時 SAST ~ 30日8時 SAST
風向・風速北 6m/s
視程10km以上
少しの雲 雲底高度 300m
全天の4割程度の雲 雲底高度 1070m
29日2時 SAST ~ 29日4時 SAST に 確率 40% で一時的に
全天の8割程度の雲 雲底高度 240m
29日8時 SAST から
風向・風速南西 6m/s
視程10km以上
全天の8割程度の雲 雲底高度 1070m
29日15時 SAST から
風向・風速南 5m/s
視程10km以上
少しの雲 雲底高度 1220m
29日20時 SAST ~ 29日22時 SAST に徐々に
風向・風速不定 2m/s
TAF FACT 282200Z 2900/3006 35012KT 9999 FEW010 SCT035 TX17/2912Z TN12/2905Z
PROB40 TEMPO 2900/2902 BKN008
FM290600 22012KT 9999 BKN035
FM291300 18010KT 9999 FEW040
BECMG 2918/2920 VRB03KT